createdAt,value
2018-03-03T00:01:19.155Z,52.65
2018-03-03T00:03:47.052Z,52.92
2018-03-03T00:06:14.949Z,56.88
2018-03-03T00:08:42.856Z,54.22
2018-03-03T00:11:10.400Z,56.50
2018-03-03T00:13:37.916Z,57.03
2018-03-03T00:16:05.805Z,51.20
2018-03-03T00:18:33.779Z,57.15
2018-03-03T00:21:01.272Z,59.58
2018-03-03T00:23:29.257Z,58.03
2018-03-03T00:25:56.848Z,54.85
2018-03-03T00:28:24.360Z,52.10
2018-03-03T00:30:52.336Z,58.28
2018-03-03T00:33:19.861Z,54.22
2018-03-03T00:35:47.408Z,57.30
2018-03-03T00:38:14.925Z,60.42
2018-03-03T00:40:42.437Z,57.33
2018-03-03T00:43:09.948Z,55.20
2018-03-03T00:45:37.452Z,53.75
2018-03-03T00:48:04.959Z,54.28
2018-03-03T00:50:32.852Z,57.78
2018-03-03T00:53:00.820Z,57.62
2018-03-03T00:55:28.333Z,60.80
2018-03-03T00:57:56.224Z,56.92
2018-03-03T01:00:24.205Z,59.85
2018-03-03T01:02:51.792Z,58.35
2018-03-03T01:05:19.400Z,61.00
2018-03-03T01:07:46.899Z,60.45
2018-03-03T01:10:14.408Z,56.17
2018-03-03T01:12:41.928Z,55.88
2018-03-03T01:15:09.519Z,59.00
2018-03-03T01:17:37.109Z,56.40
2018-03-03T01:20:04.701Z,51.67
2018-03-03T01:22:32.288Z,53.05
2018-03-03T01:24:59.877Z,55.47
2018-03-03T01:27:27.447Z,58.65
2018-03-03T01:29:54.969Z,54.90
2018-03-03T01:32:22.944Z,53.83
2018-03-03T01:34:50.463Z,58.42
2018-03-03T01:37:17.960Z,56.35
2018-03-03T01:39:45.496Z,54.25
2018-03-03T01:42:13.083Z,53.87
2018-03-03T01:44:40.669Z,52.15
2018-03-03T01:47:08.260Z,55.75
2018-03-03T01:49:35.852Z,54.85
2018-03-03T01:52:03.448Z,52.92
2018-03-03T01:54:31.432Z,53.95
2018-03-03T01:56:59.038Z,57.97
2018-03-03T01:59:26.950Z,53.85
2018-03-03T02:01:54.435Z,56.95
2018-03-03T02:04:21.949Z,56.20
2018-03-03T02:06:49.439Z,54.25
2018-03-03T02:09:17.043Z,56.35
2018-03-03T02:11:44.629Z,56.50
2018-03-03T02:14:12.147Z,54.50
2018-03-03T02:16:40.134Z,58.45
2018-03-03T02:19:08.048Z,57.62
2018-03-03T02:21:35.545Z,46.35
2018-03-03T02:24:03.079Z,58.80
2018-03-03T02:26:30.578Z,59.17
2018-03-03T02:28:58.096Z,57.72
2018-03-03T02:31:25.619Z,60.12
2018-03-03T02:33:53.138Z,60.75
2018-03-03T02:36:20.655Z,59.42
2018-03-03T02:38:48.204Z,56.17
2018-03-03T02:41:15.729Z,59.33
2018-03-03T02:43:43.299Z,55.95
2018-03-03T02:46:11.296Z,57.83
2018-03-03T02:48:39.188Z,55.30
2018-03-03T02:51:07.103Z,58.90
2018-03-03T02:53:34.649Z,58.40
2018-03-03T02:56:02.157Z,57.85
2018-03-03T02:58:30.134Z,60.78
2018-03-03T03:00:57.640Z,56.33
2018-03-03T03:03:25.640Z,55.35
2018-03-03T03:05:53.557Z,52.45
2018-03-03T03:08:21.106Z,55.70
2018-03-03T03:10:49.023Z,54.75
2018-03-03T03:13:16.908Z,56.85
2018-03-03T03:15:44.817Z,54.28
2018-03-03T03:18:12.320Z,53.17
2018-03-03T03:20:39.851Z,58.47
2018-03-03T03:23:07.340Z,54.65
2018-03-03T03:25:34.853Z,50.65
2018-03-03T03:28:02.356Z,56.40
2018-03-03T03:30:29.893Z,58.08
2018-03-03T03:32:57.488Z,57.78
2018-03-03T03:35:25.000Z,57.30
2018-03-03T03:37:52.971Z,50.40
2018-03-03T03:40:20.560Z,57.88
2018-03-03T03:42:48.060Z,57.15
2018-03-03T03:45:15.963Z,53.72
2018-03-03T03:47:43.858Z,53.80
2018-03-03T03:50:11.769Z,54.33
2018-03-03T03:52:39.274Z,51.70
2018-03-03T03:55:06.803Z,54.78
2018-03-03T03:57:34.297Z,57.40
2018-03-03T04:00:02.285Z,53.58
2018-03-03T04:02:29.869Z,57.30
2018-03-03T04:04:57.456Z,55.72
2018-03-03T04:07:25.049Z,55.20
2018-03-03T04:09:52.541Z,56.25
2018-03-03T04:12:20.456Z,53.55
2018-03-03T04:14:47.949Z,55.92
2018-03-03T04:17:15.493Z,56.25
2018-03-03T04:19:43.083Z,58.45
2018-03-03T04:22:10.662Z,55.10
2018-03-03T04:24:38.157Z,57.38
2018-03-03T04:27:05.674Z,59.22
2018-03-03T04:29:33.173Z,57.72
2018-03-03T04:32:00.692Z,57.67
2018-03-03T04:34:28.213Z,51.97
2018-03-03T04:36:56.125Z,54.03
2018-03-03T04:39:23.629Z,57.38
2018-03-03T04:41:51.146Z,55.80
2018-03-03T04:44:18.641Z,54.92
2018-03-03T04:46:46.153Z,54.85
2018-03-03T04:49:14.085Z,53.53
2018-03-03T04:51:41.566Z,56.90
2018-03-03T04:54:09.065Z,56.08
2018-03-03T04:56:36.641Z,53.40
2018-03-03T04:59:04.953Z,51.78
2018-03-03T05:04:35.376Z,54.97
2018-03-03T05:07:03.341Z,52.47
2018-03-03T05:09:30.832Z,50.40
2018-03-03T05:11:58.341Z,52.65
2018-03-03T05:17:34.118Z,54.15
2018-03-03T05:20:07.801Z,53.17
2018-03-03T05:22:41.109Z,44.42
2018-03-03T05:25:14.433Z,51.80
2018-03-03T05:27:47.665Z,52.33
2018-03-03T05:30:30.867Z,56.03
2018-03-03T05:33:13.656Z,48.30
2018-03-03T05:35:58.813Z,53.97
2018-03-03T05:38:32.346Z,52.78
2018-03-03T05:41:05.948Z,51.10
2018-03-03T05:43:35.282Z,54.38
2018-03-03T05:46:06.393Z,55.12
2018-03-03T05:48:42.404Z,49.80
2018-03-03T05:54:10.106Z,51.85
2018-03-03T05:56:43.762Z,57.78
2018-03-03T05:59:12.253Z,51.75
2018-03-03T06:01:45.556Z,54.88
2018-03-03T06:04:17.125Z,52.60
2018-03-03T06:06:45.017Z,52.45
2018-03-03T06:12:12.660Z,55.55
2018-03-03T06:14:40.169Z,54.13
2018-03-03T06:17:08.380Z,53.13
2018-03-03T06:19:35.893Z,54.63
2018-03-03T06:22:03.393Z,55.08
2018-03-03T06:24:30.903Z,53.72
2018-03-03T06:26:58.420Z,54.70
2018-03-03T06:29:25.933Z,54.42
2018-03-03T06:31:53.428Z,55.45
2018-03-03T06:34:20.944Z,54.30
2018-03-03T06:36:48.835Z,53.22
2018-03-03T06:39:16.345Z,55.53
2018-03-03T06:41:43.916Z,51.58
2018-03-03T06:44:11.828Z,59.05
2018-03-03T06:46:39.375Z,50.72
2018-03-03T06:49:06.964Z,55.35
2018-03-03T06:51:34.464Z,51.45
2018-03-03T06:54:02.389Z,52.38
2018-03-03T06:56:29.886Z,57.65
2018-03-03T06:58:57.416Z,53.95
2018-03-03T07:01:24.924Z,54.05
2018-03-03T07:03:53.293Z,49.35
2018-03-03T07:06:20.792Z,51.10
2018-03-03T07:08:48.381Z,53.00
2018-03-03T07:11:15.963Z,55.95
2018-03-03T07:13:43.456Z,52.00
2018-03-03T07:16:10.969Z,48.05
2018-03-03T07:18:38.473Z,52.80
2018-03-03T07:21:05.988Z,52.35
2018-03-03T07:23:33.485Z,51.25
2018-03-03T07:26:01.001Z,49.83
2018-03-03T07:28:28.939Z,52.45
2018-03-03T07:30:56.798Z,50.70
2018-03-03T07:33:24.683Z,54.00
2018-03-03T07:35:52.593Z,54.00
2018-03-03T07:38:20.096Z,48.85
2018-03-03T07:40:47.601Z,50.30
2018-03-03T07:43:15.088Z,53.53
2018-03-03T07:45:42.601Z,52.53
2018-03-03T07:48:10.103Z,51.20
2018-03-03T07:50:38.013Z,54.40
2018-03-03T07:53:05.912Z,53.63
2018-03-03T07:55:33.436Z,49.40
2018-03-03T07:58:00.938Z,43.40
2018-03-03T08:00:28.474Z,48.75
2018-03-03T08:02:55.964Z,47.72
2018-03-03T08:05:23.480Z,50.40
2018-03-03T08:07:50.967Z,50.60
2018-03-03T08:10:18.477Z,49.55
2018-03-03T08:12:45.994Z,49.17
2018-03-03T08:15:13.904Z,50.42
2018-03-03T08:17:41.409Z,49.03
2018-03-03T08:20:08.929Z,47.08
2018-03-03T08:22:36.429Z,49.17
2018-03-03T08:25:04.420Z,45.97
2018-03-03T08:27:31.912Z,45.75
2018-03-03T08:29:59.811Z,51.88
2018-03-03T08:32:27.699Z,47.47
2018-03-03T08:34:55.704Z,46.90
2018-03-03T08:37:23.615Z,49.25
2018-03-03T08:39:51.099Z,49.75
2018-03-03T08:42:18.602Z,47.05
2018-03-03T08:44:46.109Z,48.70
2018-03-03T08:47:13.736Z,54.08
2018-03-03T08:49:41.632Z,48.38
2018-03-03T08:52:09.540Z,51.08
2018-03-03T08:54:37.041Z,50.63
2018-03-03T08:57:04.557Z,52.72
2018-03-03T08:59:32.053Z,42.90
2018-03-03T09:01:59.664Z,50.92
2018-03-03T09:04:27.566Z,51.40
2018-03-03T09:06:55.093Z,49.25
2018-03-03T09:09:22.584Z,45.85
2018-03-03T09:11:50.096Z,50.42
2018-03-03T09:14:17.685Z,48.83
2018-03-03T09:16:45.703Z,50.10
2018-03-03T09:19:13.680Z,49.50
2018-03-03T09:21:41.193Z,49.72
2018-03-03T09:24:08.689Z,50.50
2018-03-03T09:26:36.228Z,46.70
2018-03-03T09:29:03.829Z,52.55
2018-03-03T09:31:31.742Z,48.83
2018-03-03T09:33:59.235Z,51.17
2018-03-03T09:36:26.752Z,48.83
2018-03-03T09:38:54.256Z,50.05
2018-03-03T09:41:21.768Z,50.45
2018-03-03T09:43:49.656Z,45.50
2018-03-03T09:46:17.159Z,49.90
2018-03-03T09:48:44.640Z,47.70
2018-03-03T09:51:12.606Z,42.83
2018-03-03T09:53:40.096Z,48.03
2018-03-03T09:56:08.031Z,51.33
2018-03-03T09:58:35.523Z,45.95
2018-03-03T10:01:03.024Z,47.15
2018-03-03T10:03:30.511Z,47.78
2018-03-03T10:05:58.029Z,48.78
2018-03-03T10:08:25.936Z,49.13
2018-03-03T10:10:53.899Z,48.33
2018-03-03T10:13:21.487Z,53.17
2018-03-03T10:15:48.976Z,48.55
2018-03-03T10:18:16.475Z,49.90
2018-03-03T10:20:44.382Z,58.40
2018-03-03T10:23:12.281Z,51.92
2018-03-03T10:25:39.840Z,47.95
2018-03-03T10:28:07.770Z,42.25
2018-03-03T10:30:35.263Z,54.13
2018-03-03T10:33:02.805Z,48.58
2018-03-03T10:35:30.319Z,46.17
2018-03-03T10:37:58.297Z,48.42
2018-03-03T10:40:25.783Z,44.75
2018-03-03T10:42:53.368Z,56.63
2018-03-03T10:45:20.863Z,74.05
2018-03-03T10:47:48.779Z,51.75
2018-03-03T10:50:16.264Z,43.87
2018-03-03T10:52:43.813Z,46.55
2018-03-03T10:55:11.296Z,44.13
2018-03-03T10:57:38.881Z,45.47
2018-03-03T11:00:06.467Z,45.10
2018-03-03T11:02:33.979Z,46.85
2018-03-03T11:05:01.861Z,45.17
2018-03-03T11:07:29.752Z,44.72
2018-03-03T11:09:57.249Z,43.40
2018-03-03T11:12:25.156Z,41.53
2018-03-03T11:14:52.709Z,44.35
2018-03-03T11:17:20.292Z,45.45
2018-03-03T11:19:47.772Z,47.47
2018-03-03T11:22:15.309Z,44.08
2018-03-03T11:24:42.811Z,45.78
2018-03-03T11:27:10.326Z,46.55
2018-03-03T11:29:37.823Z,46.17
2018-03-03T11:32:05.733Z,47.05
2018-03-03T11:34:33.244Z,46.80
2018-03-03T11:37:00.729Z,46.40
2018-03-03T11:39:28.237Z,45.92
2018-03-03T11:41:55.783Z,47.17
2018-03-03T11:44:23.285Z,53.87
2018-03-03T11:46:50.772Z,62.20
2018-03-03T11:49:18.275Z,45.72
2018-03-03T11:51:45.797Z,48.50
2018-03-03T11:54:13.696Z,46.55
2018-03-03T11:56:41.668Z,47.60
2018-03-03T11:59:09.256Z,50.03
2018-03-03T12:01:36.739Z,57.65
2018-03-03T12:04:04.248Z,44.65
2018-03-03T12:06:32.257Z,46.10
2018-03-03T12:08:59.805Z,46.40
2018-03-03T12:11:27.303Z,49.47
2018-03-03T12:13:54.803Z,48.97
2018-03-03T12:16:22.759Z,50.60
2018-03-03T12:18:50.259Z,64.15
2018-03-03T12:21:17.848Z,50.38
2018-03-03T12:23:45.425Z,48.47
2018-03-03T12:26:12.912Z,49.50
2018-03-03T12:28:40.495Z,56.15
2018-03-03T12:31:07.980Z,48.63
2018-03-03T12:33:35.596Z,50.53
2018-03-03T12:36:03.568Z,47.15
2018-03-03T12:38:31.063Z,49.05
2018-03-03T12:40:58.947Z,49.28
2018-03-03T12:43:26.456Z,50.40
2018-03-03T12:45:54.337Z,50.08
2018-03-03T12:48:22.242Z,47.60
2018-03-03T12:50:49.796Z,48.13
2018-03-03T12:53:17.290Z,46.90
2018-03-03T12:55:45.190Z,48.38
2018-03-03T12:58:13.073Z,45.58
2018-03-03T13:00:41.061Z,48.00
2018-03-03T13:03:08.640Z,47.67
2018-03-03T13:05:36.241Z,49.83
2018-03-03T13:08:03.733Z,49.22
2018-03-03T13:10:31.641Z,49.13
2018-03-03T13:12:59.608Z,46.28
2018-03-03T13:15:27.599Z,44.45
2018-03-03T13:17:55.202Z,46.60
2018-03-03T13:20:22.775Z,43.80
2018-03-03T13:22:50.268Z,43.67
2018-03-03T13:25:17.772Z,48.83
2018-03-03T13:27:45.661Z,42.92
2018-03-03T13:30:13.570Z,50.20
2018-03-03T13:32:41.542Z,45.72
2018-03-03T13:35:09.057Z,47.15
2018-03-03T13:37:36.613Z,46.40
2018-03-03T13:40:04.125Z,45.50
2018-03-03T13:42:32.008Z,44.83
2018-03-03T13:44:59.914Z,42.85
2018-03-03T13:48:29.645Z,43.05
2018-03-03T13:50:57.540Z,42.88
2018-03-03T13:53:25.421Z,44.38
2018-03-03T13:55:52.958Z,43.90
2018-03-03T13:58:20.457Z,42.42
2018-03-03T14:00:47.961Z,41.58
2018-03-03T14:03:15.539Z,41.92
2018-03-03T14:05:43.035Z,38.25
2018-03-03T14:08:10.515Z,42.60
2018-03-03T14:19:16.743Z,39.47
2018-03-03T14:21:44.248Z,38.70
2018-03-03T14:24:12.224Z,41.05
2018-03-03T14:26:39.724Z,42.45
2018-03-03T14:29:07.699Z,39.65
2018-03-03T14:31:35.292Z,41.70
2018-03-03T14:34:03.197Z,40.12
2018-03-03T14:36:31.087Z,40.55
2018-03-03T14:38:58.973Z,38.42
2018-03-03T14:41:26.867Z,39.20
2018-03-03T14:43:54.748Z,40.85
2018-03-03T14:46:22.252Z,37.25
2018-03-03T14:48:50.234Z,38.00
2018-03-03T14:51:18.142Z,37.95
2018-03-03T14:53:46.111Z,35.05
2018-03-03T14:56:13.615Z,36.45
2018-03-03T14:58:41.501Z,38.58
2018-03-03T15:01:09.397Z,37.95
2018-03-03T15:03:37.368Z,37.28
2018-03-03T15:06:04.970Z,39.15
2018-03-03T15:08:32.466Z,40.12
2018-03-03T15:11:00.369Z,39.03
2018-03-03T15:13:27.885Z,41.70
2018-03-03T15:15:55.388Z,42.40
2018-03-03T15:18:22.894Z,40.60
2018-03-03T15:20:50.884Z,37.40
2018-03-03T15:23:18.377Z,41.83
2018-03-03T15:25:46.285Z,40.22
2018-03-03T15:28:13.772Z,40.45
2018-03-03T15:30:41.281Z,42.30
2018-03-03T15:33:08.772Z,40.63
2018-03-03T15:35:36.280Z,41.37
2018-03-03T15:38:03.869Z,42.00
2018-03-03T15:40:31.372Z,42.90
2018-03-03T15:42:59.349Z,41.78
2018-03-03T15:45:26.869Z,40.15
2018-03-03T15:47:54.351Z,41.20
2018-03-03T15:50:21.842Z,43.70
2018-03-03T15:52:49.339Z,42.85
2018-03-03T15:55:16.865Z,41.78
2018-03-03T15:57:44.448Z,45.95
2018-03-03T16:00:11.942Z,44.13
2018-03-03T16:02:39.924Z,43.50
2018-03-03T16:05:07.413Z,42.13
2018-03-03T16:07:35.387Z,43.13
2018-03-03T16:10:02.885Z,42.50
2018-03-03T16:12:30.464Z,44.58
2018-03-03T16:14:57.961Z,43.58
2018-03-03T16:17:25.872Z,40.60
2018-03-03T16:19:53.368Z,43.40
2018-03-03T16:22:20.913Z,45.75
2018-03-03T16:24:48.481Z,46.37
2018-03-03T16:27:16.097Z,40.72
2018-03-03T16:29:44.008Z,38.70
2018-03-03T16:32:11.516Z,43.72
2018-03-03T16:34:39.040Z,40.28
2018-03-03T16:37:06.549Z,42.17
2018-03-03T16:39:34.433Z,37.92
2018-03-03T16:42:02.389Z,40.22
2018-03-03T16:44:29.901Z,37.97
2018-03-03T16:46:57.408Z,39.28
2018-03-03T16:49:24.913Z,39.83
2018-03-03T16:51:52.430Z,37.90
2018-03-03T16:54:19.932Z,41.90
2018-03-03T16:56:47.938Z,41.25
2018-03-03T16:59:15.497Z,40.67
2018-03-03T17:01:43.109Z,41.00
2018-03-03T17:04:10.596Z,41.40
2018-03-03T17:06:38.134Z,40.63
2018-03-03T17:09:05.624Z,40.42
2018-03-03T17:11:33.122Z,43.22
2018-03-03T17:14:01.042Z,39.67
2018-03-03T17:16:28.523Z,42.80
2018-03-03T17:18:56.155Z,41.92
2018-03-03T17:21:23.646Z,38.92
2018-03-03T17:23:51.235Z,39.58
2018-03-03T17:26:18.802Z,38.85
2018-03-03T17:28:46.298Z,42.38
2018-03-03T17:31:13.785Z,40.03
2018-03-03T17:33:41.399Z,61.30
2018-03-03T17:36:09.272Z,44.13
2018-03-03T17:38:36.876Z,46.10
2018-03-03T17:41:04.852Z,48.05
2018-03-03T17:43:32.383Z,49.95
2018-03-03T17:45:59.873Z,44.13
2018-03-03T17:48:27.497Z,44.30
2018-03-03T17:50:54.977Z,44.47
2018-03-03T17:53:22.692Z,31.98
2018-03-03T17:55:50.667Z,41.83
2018-03-03T17:58:18.280Z,43.75
2018-03-03T18:00:45.766Z,45.80
2018-03-03T18:03:13.390Z,45.00
2018-03-03T18:05:40.888Z,45.10
2018-03-03T18:08:08.533Z,47.88
2018-03-03T18:10:36.015Z,48.13
2018-03-03T18:13:03.633Z,47.65
2018-03-03T18:15:31.124Z,46.00
2018-03-03T18:17:58.743Z,45.00
2018-03-03T18:20:26.623Z,48.28
2018-03-03T18:22:54.889Z,45.40
2018-03-03T18:25:22.367Z,43.58
2018-03-03T18:27:50.062Z,45.95
2018-03-03T18:30:17.553Z,44.78
2018-03-03T18:32:45.237Z,45.53
2018-03-03T18:35:12.725Z,44.78
2018-03-03T18:37:40.457Z,42.35
2018-03-03T18:40:07.964Z,46.72
2018-03-03T18:42:35.663Z,45.60
2018-03-03T18:45:03.279Z,48.10
2018-03-03T18:47:30.907Z,45.88
2018-03-03T18:49:58.403Z,46.80
2018-03-03T18:52:26.053Z,45.45
2018-03-03T18:54:53.637Z,44.50
2018-03-03T18:57:21.676Z,47.10
2018-03-03T18:59:49.185Z,44.95
2018-03-03T19:02:16.762Z,50.40
2018-03-03T19:04:44.363Z,46.33
2018-03-03T19:07:12.029Z,48.38
2018-03-03T19:09:39.533Z,46.80
2018-03-03T19:12:07.142Z,45.70
2018-03-03T19:14:35.077Z,44.53
2018-03-03T19:17:02.930Z,48.80
2018-03-03T19:19:30.825Z,46.20
2018-03-03T19:21:58.802Z,44.13
2018-03-03T19:24:26.386Z,47.80
2018-03-03T19:26:54.381Z,45.30
2018-03-03T19:29:22.285Z,42.70
2018-03-03T19:31:50.170Z,45.17
2018-03-03T19:34:18.156Z,47.00
2018-03-03T19:36:45.831Z,46.70
2018-03-03T19:39:13.451Z,46.13
2018-03-03T19:41:41.419Z,44.70
2018-03-03T19:44:09.065Z,42.28
2018-03-03T19:46:36.583Z,49.80
2018-03-03T19:51:57.501Z,45.95
2018-03-03T19:54:25.065Z,46.30
2018-03-03T19:56:53.048Z,46.75
2018-03-03T19:59:20.634Z,52.78
2018-03-03T20:01:48.134Z,50.40
2018-03-03T20:04:15.673Z,47.13
2018-03-03T20:06:43.170Z,52.65
2018-03-03T20:09:10.939Z,57.95
2018-03-03T20:11:38.423Z,51.25
2018-03-03T20:14:06.154Z,54.97
2018-03-03T20:16:33.753Z,49.33
2018-03-03T20:19:01.372Z,54.80
2018-03-03T20:21:28.934Z,52.67
2018-03-03T20:23:56.935Z,52.75
2018-03-03T20:26:24.836Z,67.62
2018-03-03T20:28:52.716Z,53.30
2018-03-03T20:31:20.295Z,51.20
2018-03-03T20:33:47.792Z,47.67
2018-03-03T20:36:15.287Z,55.22
2018-03-03T20:38:43.197Z,52.95
2018-03-03T20:41:11.097Z,55.42
2018-03-03T20:43:38.588Z,52.92
2018-03-03T20:46:06.129Z,53.30
2018-03-03T20:48:33.717Z,52.65
2018-03-03T20:51:01.300Z,50.50
2018-03-03T20:53:29.061Z,53.83
2018-03-03T20:55:56.576Z,55.97
2018-03-03T20:58:24.068Z,49.28
2018-03-03T21:00:51.673Z,49.05
2018-03-03T21:03:19.171Z,46.90
2018-03-03T21:05:47.076Z,50.72
2018-03-03T21:08:14.958Z,48.40
2018-03-03T21:10:42.867Z,49.03
2018-03-03T21:13:10.352Z,47.88
2018-03-03T21:15:37.910Z,47.25
2018-03-03T21:18:05.401Z,50.60
2018-03-03T21:20:32.908Z,49.08
2018-03-03T21:23:00.589Z,48.33
2018-03-03T21:25:28.100Z,49.78
2018-03-03T21:27:55.661Z,47.72
2018-03-03T21:30:23.566Z,47.35
2018-03-03T21:32:51.453Z,47.10
2018-03-03T21:35:18.966Z,48.92
2018-03-03T21:37:46.469Z,47.95
2018-03-03T21:40:13.978Z,48.15
2018-03-03T21:42:41.473Z,47.85
2018-03-03T21:45:08.962Z,46.53
2018-03-03T21:47:36.495Z,42.80
2018-03-03T21:50:03.984Z,47.92
2018-03-03T21:52:31.891Z,48.97
2018-03-03T21:54:59.408Z,48.22
2018-03-03T21:57:27.014Z,45.05
2018-03-03T21:59:54.504Z,46.42
2018-03-03T22:02:22.068Z,48.22
2018-03-03T22:04:49.552Z,49.90
2018-03-03T22:07:17.062Z,47.10
2018-03-03T22:09:44.980Z,48.72
2018-03-03T22:12:12.484Z,48.20
2018-03-03T22:14:39.967Z,51.53
2018-03-03T22:17:07.478Z,48.22
2018-03-03T22:19:35.082Z,48.70
2018-03-03T22:22:02.591Z,50.12
2018-03-03T22:24:30.080Z,50.22
2018-03-03T22:26:57.596Z,46.65
2018-03-03T22:29:25.084Z,47.70
2018-03-03T22:31:52.589Z,49.40
2018-03-03T22:34:20.169Z,50.55
2018-03-03T22:36:47.686Z,50.75
2018-03-03T22:39:15.253Z,48.95
2018-03-03T22:41:42.836Z,50.85
2018-03-03T22:44:10.733Z,47.17
2018-03-03T22:46:38.641Z,49.97
2018-03-03T22:49:06.617Z,48.15
2018-03-03T22:51:34.129Z,49.72
2018-03-03T22:54:01.693Z,50.47
2018-03-03T22:56:29.215Z,46.47
2018-03-03T22:58:56.733Z,48.65
2018-03-03T23:01:24.328Z,47.80
2018-03-03T23:03:51.816Z,51.03
2018-03-03T23:06:19.323Z,49.30
2018-03-03T23:08:47.290Z,50.12
2018-03-03T23:11:14.776Z,48.47
2018-03-03T23:13:42.361Z,51.08
2018-03-03T23:16:09.859Z,50.33
2018-03-03T23:18:37.765Z,49.55
2018-03-03T23:21:05.321Z,50.53
2018-03-03T23:23:32.899Z,50.20
2018-03-03T23:26:00.505Z,48.45
2018-03-03T23:28:28.476Z,50.85
2018-03-03T23:30:55.973Z,52.45
2018-03-03T23:33:23.485Z,51.60
2018-03-03T23:35:51.037Z,52.25
2018-03-03T23:38:18.549Z,50.63
2018-03-03T23:40:46.040Z,49.72
2018-03-03T23:43:13.548Z,48.95
2018-03-03T23:45:41.040Z,53.47
2018-03-03T23:48:08.752Z,48.85
2018-03-03T23:50:36.249Z,54.30
2018-03-03T23:53:03.760Z,53.85
2018-03-03T23:55:31.253Z,52.33
2018-03-03T23:57:58.787Z,51.97
